Tiempo atmosférico en la estación meteorológica de Alcala de Henares, Madrid (605 m.)



Fecha
DESCASC
Temp. máxima en grados centígrados (hora)
DESCASC
Temp. mínima en grados centígrados (hora)
DESCASC
Temp. media en grados centígrados
DESCASC
Racha de viento máxima en m/sg (hora)
DESCASC
Velocidad máxima media en intervalos de 10 minutos(hora)
DESCASC
Precipitaciones diarias en mm
DESCASC
Precipitaciones de 00:00 a 06:00 en mm
DESCASC
Precipitaciones de 06:00 a 12:00 en mm
DESCASC
Precipitaciones de 12:00 a 18:00 en mm
DESCASC
Precipitaciones de 18:00 a 24:00 en mm
DESCASC
17-08-2018 32.6 (17:00) 16.8 (07:30) 24.7 11.11 (21:30) 7.22 (23:20) 0 0 0 0 0
16-08-2018 33.2 (18:20) 21.1 (23:59) 27.2 12.22 (00:40) 7.5 (00:40) 0 0 0 0 0
15-08-2018 35.7 (17:30) 16.8 (07:20) 26.3 10.28 (23:59) 5.83 (23:59) 0 0 0 0 0
14-08-2018 33.8 (17:50) 17.1 (07:20) 25.4 8.61 (03:10) 5.83 (08:30) 0 0 0 0 0
13-08-2018 34.6 (18:10) 17.4 (07:40) 26 10.56 (16:00) 4.72 (13:40) 0 0 0 0 0
12-08-2018 36.1 (17:20) 20.8 (00:00) 28.4 12.5 (16:00) 7.22 (16:40) 0 0 0 0 0
11-08-2018 35.4 (18:20) 18.5 (00:00) 27 6.94 (18:40) 3.61 (17:50) 0.2 0.2 0 0 0
10-08-2018 33.6 (17:20) 15.5 (00:00) 24.5 11.39 (00:30) 7.78 (00:50) 0.8 0 0 0 0.8
09-08-2018 32.3 (17:10) 15 (00:00) 23.6 13.89 (23:50) 9.72 (23:59) 0 0 0 0 0
08-08-2018 36.2 (17:00) 17.1 (00:00) 26.7 13.33 (18:00) 7.78 (19:10) 0 0 0 0 0
07-08-2018 38.3 (16:30) 20.3 (00:00) 29.3 12.78 (17:20) 8.33 (17:20) 0 0 0 0 0
06-08-2018 40.1 (17:20) 18.1 (00:00) 29.1 15 (18:40) 7.78 (18:50) 0 0 0 0 0
05-08-2018 38.9 (18:00) 20.6 (00:00) 29.8 6.67 (14:00) 4.44 (00:50) 0 0 0 0 0
04-08-2018 39.2 (17:10) 16.6 (07:30) 27.9 7.78 (12:00) 5 (12:40) 0 0 0 0 0
03-08-2018 40.7 (17:10) 21.2 (00:00) 31 17.5 (16:20) 5.28 (16:20) 0 0 0 0 0
02-08-2018 40.8 (18:00) 18.8 (00:00) 29.8 6.67 (03:30) 4.17 (03:50) 0 0 0 0 0
01-08-2018 38.6 (17:40) 17.8 (07:00) 28.2 9.72 (15:50) 3.89 (16:40) 0 0 0 0 0
31-07-2018 36.3 (17:50) 15 (00:00) 25.6 10.56 (15:20) 5.28 (15:20) 0 0 0 0 0
30-07-2018 35.3 (18:10) 14.5 (00:00) 24.9 8.06 (19:10) 4.72 (19:10) 0 0 0 0 0
29-07-2018 34 (18:10) 14.7 (00:00) 24.3 9.17 (13:20) 5.28 (16:50) 0 0 0 0 0
28-07-2018 34.4 (18:20) 12.6 (00:00) 23.5 12.5 (14:40) 6.11 (15:20) 0 0 0 0 0
27-07-2018 35.1 (16:30) 15.1 (00:00) 25.1 10.83 (15:40) 6.67 (19:10) 0 0 0 0 0
26-07-2018 35.5 (16:40) 14.7 (00:00) 25.1 9.17 (18:20) 4.72 (18:30) 0 0 0 0 0
25-07-2018 35.7 (17:40) 14.6 (00:00) 25.2 10 (15:40) 5 (15:00) 0 0 0 0 0
24-07-2018 34.3 (17:00) 14.7 (00:00) 24.5 9.72 (16:10) 5.56 (13:20) 0 0 0 0 0
23-07-2018 35.7 (17:20) 17 (00:00) 26.4 9.44 (18:10) 5.28 (17:40) 0 0 0 0 0
22-07-2018 33.3 (17:40) 15.7 (00:00) 24.5 8.61 (03:20) 5.83 (00:10) 0 0 0 0 0
21-07-2018 30.9 (17:00) 15.2 (00:00) 23 11.39 (23:30) 8.33 (23:40) 0 0 0 0 0
20-07-2018 32.6 (16:20) 12.6 (00:00) 22.6 14.17 (21:10) 9.17 (21:10) 0 0 0 0 0

Gráficas

Temp. máximas Temp. mínimas Temp. medias Precipitaciones Rachas de viento máximas Velocidades máximas media en intervalos de 10 minutos

Datos horarios

Fecha y hora oficial Temperatura (ºC) Velocidad del viento (km/h) Dirección del viento Racha (km/h) Dirección de racha Precipitación (mm) Presión (hPa) Tendencia (hPa) Humedad (%)
2018-08-18 23:00:00 24.4 18 Nordeste 24 Nordeste 0 -- -- 34
2018-08-18 22:00:00 25 14 Este 27 Nordeste 0 -- -- 30
2018-08-18 21:00:00 28.3 20 Nordeste 31 Nordeste 0 -- -- 27
2018-08-18 20:00:00 30.2 12 Este 21 Este 0 -- -- 30
2018-08-18 19:00:00 31.3 8 Norte 18 Nordeste 0 -- -- 30
2018-08-18 18:00:00 31.3 10 Norte 24 Norte 0 -- -- 33
2018-08-18 17:00:00 31.6 6 Este 21 Norte 0 -- -- 35
2018-08-18 16:00:00 31.5 10 Oeste 19 Oeste 0 -- -- 36
2018-08-18 15:00:00 29.4 9 Nordeste 18 Nordeste 0 -- -- 40
2018-08-18 14:00:00 27.8 5 Nordeste 18 Nordeste 0 -- -- 44
2018-08-18 13:00:00 26.4 7 Nordeste 20 Este 0 -- -- 46
2018-08-18 12:00:00 23.8 10 Nordeste 21 Este 0 -- -- 48
2018-08-18 11:00:00 21.5 12 Nordeste 21 Nordeste 0 -- -- 51
2018-08-18 10:00:00 18.3 15 Nordeste 26 Este 0 -- -- 59
2018-08-18 09:00:00 16.8 16 Nordeste 27 Nordeste 0 -- -- 63
2018-08-18 08:00:00 15.9 17 Nordeste 28 Nordeste 0 -- -- 65
2018-08-18 07:00:00 15.5 17 Nordeste 29 Este 0 -- -- 67
2018-08-18 06:00:00 15.9 19 Nordeste 29 Nordeste 0 -- -- 66
2018-08-18 05:00:00 16.3 20 Nordeste 32 Este 0 -- -- 66
2018-08-18 04:00:00 16.9 19 Nordeste 31 Nordeste 0 -- -- 65
2018-08-18 03:00:00 17.6 22 Nordeste 32 Nordeste 0 -- -- 64
2018-08-18 02:00:00 18.5 20 Nordeste 31 Nordeste 0 -- -- 63
2018-08-18 01:00:00 19.8 23 Nordeste 39 Nordeste 0 -- -- 59
2018-08-18 00:00:00 21.3 22 Nordeste 38 Este 0 -- -- 55
2018-08-17 23:00:00 23.1 23 Nordeste 39 Este 0 -- -- 50
2018-08-17 22:00:00 25 24 Nordeste 40 Este 0 -- -- 45
2018-08-17 21:00:00 27 24 Este 38 Este 0 -- -- 41
2018-08-17 20:00:00 29.9 22 Nordeste 30 Este 0 -- -- 36
2018-08-17 19:00:00 30.5 14 Nordeste 29 Nordeste 0 -- -- 35
2018-08-17 18:00:00 30.6 17 Nordeste 31 Nordeste 0 -- -- 38
2018-08-17 17:00:00 32.6 8 Noroeste 16 Nordeste 0 -- -- 31
2018-08-17 16:00:00 31.5 9 Norte 15 Norte 0 -- -- 32
2018-08-17 15:00:00 30.7 9 Norte 19 Norte 0 -- -- 35
2018-08-17 14:00:00 29.8 7 Este 19 Nordeste 0 -- -- 38
2018-08-17 13:00:00 28.5 8 Nordeste 19 Nordeste 0 -- -- 40
2018-08-17 12:00:00 27.1 8 Este 16 Este 0 -- -- 42
2018-08-17 11:00:00 25.1 5 Nordeste 13 Este 0 -- -- 48
2018-08-17 10:00:00 22.5 11 Este 17 Nordeste 0 -- -- 56
2018-08-17 09:00:00 19.1 9 Este 14 Este 0 -- -- 68
2018-08-17 08:00:00 17.1 9 Nordeste 13 Este 0 -- -- 75
2018-08-17 07:00:00 17.1 8 Este 15 Este 0 -- -- 76
2018-08-17 06:00:00 17.9 10 Este 17 Este 0 -- -- 73
2018-08-17 05:00:00 18.6 9 Este 15 Nordeste 0 -- -- 67
2018-08-17 04:00:00 20.1 9 Este 18 Nordeste 0 -- -- 63
2018-08-17 03:00:00 22.9 10 Nordeste 38 Sudeste 0 -- -- 51
2018-08-17 02:00:00 23.9 22 Sudeste 39 Sudeste 0 -- -- 49
2018-08-17 01:00:00 24.5 19 Sudeste 35 Este 0 -- -- 48
2018-08-17 00:00:00 21.1 7 Nordeste 9 Nordeste 0 -- -- 54
2018-08-16 23:00:00 23.1 0 Calma 5 Sudoeste 0 -- -- 47
2018-08-16 22:00:00 25.1 4 Sudoeste 10 Sudoeste 0 -- -- 43
2018-08-16 21:00:00 26.7 7 Sudoeste 19 Sudoeste 0 -- -- 40
2018-08-16 20:00:00 27.9 9 Sudoeste 44 Sudoeste 0 -- -- 38
2018-08-16 19:00:00 32.1 6 Sudoeste 20 Sudoeste 0 -- -- 30
2018-08-16 18:00:00 32.9 10 Oeste 21 Oeste 0 -- -- 29
2018-08-16 17:00:00 32.7 11 Sudoeste 23 Sudoeste 0 -- -- 29
2018-08-16 16:00:00 33 13 Sur 28 Sudoeste 0 -- -- 31
2018-08-16 15:00:00 32.1 8 Sur 23 Sudoeste 0 -- -- 33
2018-08-16 14:00:00 30.1 9 Sur 24 Sudoeste 0 -- -- 38
2018-08-16 13:00:00 30.4 13 Sur 23 Sudeste 0 -- -- 38
2018-08-16 12:00:00 27.4 16 Sur 27 Sudeste 0 -- -- 46
2018-08-16 11:00:00 25.9 19 Sur 36 Sur 0 -- -- 51
2018-08-16 10:00:00 24 17 Sur 31 Sudeste 0 -- -- 60
2018-08-16 09:00:00 23.2 4 Nordeste 22 Sudeste 0 -- -- 64
2018-08-16 08:00:00 23.4 7 Este 16 Este 0 -- -- 58
2018-08-16 07:00:00 24 9 Este 21 Este 0 -- -- 61
2018-08-16 06:00:00 24.3 5 Este 17 Este 0 -- -- 63
2018-08-16 05:00:00 24.7 4 Sudeste 15 Sudeste 0 -- -- 62
2018-08-16 04:00:00 25.1 8 Sudeste 23 Nordeste 0 -- -- 63
2018-08-16 03:00:00 25.7 8 Nordeste 20 Este 0 -- -- 62
2018-08-16 02:00:00 26.3 15 Sudeste 41 Sudeste 0 -- -- 60
2018-08-16 01:00:00 27.2 22 Sudeste 44 Sudeste 0 -- -- 53
2018-08-16 00:00:00 27.9 21 Sudeste 37 Sur 0 -- -- 40
2018-08-15 23:00:00 25.9 6 Sudeste 11 Sudeste 0 -- -- 41
2018-08-15 22:00:00 28.5 0 Calma 5 Sur 0 -- -- 35
2018-08-15 21:00:00 32.6 5 Oeste 13 Oeste 0 -- -- 27
2018-08-15 20:00:00 34.4 12 Oeste 18 Oeste 0 -- -- 25
2018-08-15 19:00:00 35 5 Noroeste 24 Noroeste 0 -- -- 25
2018-08-15 18:00:00 35.4 10 Oeste 25 Oeste 0 -- -- 25
2018-08-15 17:00:00 35 12 Noroeste 29 Oeste 0 -- -- 25
2018-08-15 16:00:00 33.9 8 Noroeste 28 Oeste 0 -- -- 29
2018-08-15 15:00:00 33.6 5 Sudoeste 22 Oeste 0 -- -- 34
2018-08-15 14:00:00 32.7 9 Sur 21 Noroeste 0 -- -- 36
2018-08-15 13:00:00 29.8 6 Norte 16 Este 0 -- -- 45
2018-08-15 12:00:00 28.3 9 Nordeste 14 Nordeste 0 -- -- 48
2018-08-15 11:00:00 25.2 7 Nordeste 14 Este 0 -- -- 49
2018-08-15 10:00:00 22.2 10 Este 17 Este 0 -- -- 51
2018-08-15 09:00:00 18.9 10 Este 19 Nordeste 0 -- -- 57
2018-08-15 08:00:00 17.1 12 Este 18 Este 0 -- -- 61
2018-08-15 07:00:00 17 9 Este 15 Este 0 -- -- 62
2018-08-15 06:00:00 17.5 10 Este 15 Nordeste 0 -- -- 61
2018-08-15 05:00:00 18 10 Este 17 Este 0 -- -- 60
2018-08-15 04:00:00 18.5 8 Este 20 Nordeste 0 -- -- 58
2018-08-15 03:00:00 19.8 13 Este 24 Nordeste 0 -- -- 54
2018-08-15 02:00:00 20.9 16 Nordeste 28 Este 0 -- -- 50
2018-08-15 01:00:00 22.6 14 Este 23 Nordeste 0 -- -- 45
2018-08-15 00:00:00 23.8 15 Este 23 Nordeste 0 -- -- 39
2018-08-14 23:00:00 24.3 10 Nordeste 14 Nordeste 0 -- -- 40
2018-08-14 22:00:00 26.5 8 Nordeste 10 Nordeste 0 -- -- 37
2018-08-14 21:00:00 30.6 6 Este 12 Este 0 -- -- 32
2018-08-14 20:00:00 32.9 8 Este 17 Sudeste 0 -- -- 27
2018-08-14 19:00:00 33.4 6 Sudeste 18 Nordeste 0 -- -- 25
2018-08-14 18:00:00 33.8 6 Este 17 Este 0 -- -- 27
2018-08-14 17:00:00 33.3 10 Este 24 Nordeste 0 -- -- 27
2018-08-14 16:00:00 32.9 10 Este 24 Este 0 -- -- 25
2018-08-14 15:00:00 31.7 12 Norte 22 Norte 0 -- -- 27
2018-08-14 14:00:00 30.6 10 Norte 21 Nordeste 0 -- -- 32
2018-08-14 13:00:00 29.4 12 Nordeste 24 Nordeste 0 -- -- 39
2018-08-14 12:00:00 27.4 12 Nordeste 24 Nordeste 0 -- -- 45
2018-08-14 11:00:00 24.8 13 Nordeste 23 Nordeste 0 -- -- 51
2018-08-14 10:00:00 22.2 15 Nordeste 24 Nordeste 0 -- -- 57
2018-08-14 09:00:00 19.1 14 Nordeste 30 Nordeste 0 -- -- 67
2018-08-14 08:00:00 17.4 18 Este 26 Nordeste 0 -- -- 72
2018-08-14 07:00:00 17.4 15 Este 27 Este 0 -- -- 72
2018-08-14 06:00:00 18 15 Este 25 Nordeste 0 -- -- 69
2018-08-14 05:00:00 19 15 Este 28 Este 0 -- -- 66
2018-08-14 04:00:00 20 18 Nordeste 31 Nordeste 0 -- -- 63
2018-08-14 03:00:00 21 18 Nordeste 29 Nordeste 0 -- -- 61
2018-08-14 02:00:00 21.5 14 Este 19 Este 0 -- -- 57
2018-08-14 01:00:00 20.8 7 Este 12 Este 0 -- -- 42
2018-08-14 00:00:00 21.6 6 Nordeste 9 Este 0 -- -- 39
2018-08-13 23:00:00 24.9 2 Este 11 Este 0 -- -- 31
2018-08-13 22:00:00 27.9 5 Sudeste 17 Norte 0 -- -- 27
2018-08-13 21:00:00 31.4 12 Norte 28 Oeste 0 -- -- 24
2018-08-13 20:00:00 33.8 10 Oeste 20 Oeste 0 -- -- 24
2018-08-13 19:00:00 34.4 10 Sudoeste 26 Sudoeste 0 -- -- 26
2018-08-13 18:00:00 34.5 9 Sudoeste 21 Sudoeste 0 -- -- 25
2018-08-13 17:00:00 34 11 Sudoeste 30 Oeste 0 -- -- 24
2018-08-13 16:00:00 33.6 13 Oeste 38 Sudoeste 0 -- -- 27
2018-08-13 15:00:00 32.7 15 Oeste 27 Sudoeste 0 -- -- 30
2018-08-13 14:00:00 31.1 13 Oeste 29 Oeste 0 -- -- 34
2018-08-13 13:00:00 30.5 10 Oeste 24 Sudoeste 0 -- -- 33
2018-08-13 12:00:00 28.8 12 Oeste 25 Oeste 0 -- -- 42
2018-08-13 11:00:00 26.5 3 Sur 9 Sur 0 -- -- 52
2018-08-13 10:00:00 23.7 5 Este 13 Nordeste 0 -- -- 60
2018-08-13 09:00:00 20.5 6 Este 13 Este 0 -- -- 65
2018-08-13 08:00:00 17.9 6 Este 12 Nordeste 0 -- -- 70
2018-08-13 07:00:00 18.3 8 Este 11 Este 0 -- -- 68
2018-08-13 06:00:00 21.6 5 Este 16 Nordeste 0 -- -- 68
2018-08-13 05:00:00 21.5 5 Sudoeste 14 Sur 0 -- -- 68
2018-08-13 04:00:00 21.3 3 Este 12 Nordeste 0 -- -- 61
2018-08-13 03:00:00 21.6 4 Nordeste 11 Este 0 -- -- 54
2018-08-13 02:00:00 21.7 4 Nordeste 13 Este 0 -- -- 54
2018-08-13 01:00:00 24.4 12 Este 18 Nordeste 0 -- -- 43
2018-08-13 00:00:00 24.8 8 Este 18 Nordeste 0 -- -- 45
2018-08-12 23:00:00 25.7 3 Noroeste 8 Norte 0 -- -- 42
2018-08-12 22:00:00 27 3 Sudeste 6 Este 0 -- -- 41
2018-08-12 21:00:00 30.2 0 Calma 19 Norte 0 -- -- 35
2018-08-12 20:00:00 31.5 13 Nordeste 26 Norte 0 -- -- 32
2018-08-12 19:00:00 33.7 9 Norte 32 Sudoeste 0 -- -- 28
2018-08-12 18:00:00 35.8 20 Oeste 39 Oeste 0 -- -- 28
2018-08-12 17:00:00 35.8 22 Oeste 42 Oeste 0 -- -- 27
2018-08-12 16:00:00 35 17 Sudoeste 45 Sudoeste 0 -- -- 27
2018-08-12 15:00:00 34.7 21 Oeste 42 Oeste 0 -- -- 31
2018-08-12 14:00:00 33.9 13 Sudoeste 25 Oeste 0 -- -- 34
2018-08-12 13:00:00 32.5 7 Sudoeste 16 Oeste 0 -- -- 40
2018-08-12 12:00:00 30.5 8 Sur 17 Sudeste 0 -- -- 43
2018-08-12 11:00:00 28 5 Nordeste 16 Nordeste 0 -- -- 52
2018-08-12 10:00:00 25.5 8 Nordeste 14 Este 0 -- -- 61
2018-08-12 09:00:00 22.6 9 Nordeste 14 Este 0 -- -- 67
2018-08-12 08:00:00 20.9 6 Este 13 Este 0 -- -- 69
2018-08-12 07:00:00 22.6 6 Norte 13 Sur 0 -- -- 68
2018-08-12 06:00:00 24 7 Sudeste 19 Este 0 -- -- 65
2018-08-12 05:00:00 23.9 4 Nordeste 13 Este 0 -- -- 66
2018-08-12 04:00:00 24.8 5 Este 17 Este 0 -- -- 63
2018-08-12 03:00:00 25.5 4 Oeste 35 Sur 0 -- -- 59
2018-08-12 02:00:00 25.8 9 Sudoeste 19 Sur 0 -- -- 55
2018-08-12 01:00:00 24.1 4 Oeste 10 Sudoeste 0 -- -- 52
2018-08-12 00:00:00 23.8 4 Este 8 Nordeste 0 -- -- 50
2018-08-11 23:00:00 25.4 5 Nordeste 6 Nordeste 0 -- -- 45
2018-08-11 22:00:00 28.5 2 Sur 4 Sudeste 0 -- -- 41
2018-08-11 21:00:00 32.6 4 Noroeste 15 Oeste 0 -- -- 32
2018-08-11 20:00:00 34.3 10 Noroeste 19 Noroeste 0 -- -- 29
2018-08-11 19:00:00 35.1 9 Noroeste 25 Oeste 0 -- -- 29
2018-08-11 18:00:00 35.2 10 Oeste 22 Oeste 0 -- -- 31
2018-08-11 17:00:00 34 6 Este 24 Sudoeste 0 -- -- 33
2018-08-11 16:00:00 33.2 8 Oeste 19 Sudoeste 0 -- -- 35
2018-08-11 15:00:00 32.8 8 Sudoeste 17 Sur 0 -- -- 37
2018-08-11 14:00:00 32.2 9 Sudoeste 17 Sudoeste 0 -- -- 41
2018-08-11 13:00:00 30.8 7 Sudeste 22 Sur 0 -- -- 45
2018-08-11 12:00:00 28.2 6 Oeste 14 Sudeste 0 -- -- 55
2018-08-11 11:00:00 26.8 3 Este 13 Nordeste 0 -- -- 59
2018-08-11 10:00:00 24.5 4 Nordeste 9 Este 0 -- -- 69
2018-08-11 09:00:00 21.7 5 Nordeste 8 Este 0 -- -- 79
2018-08-11 08:00:00 19.2 6 Nordeste 9 Nordeste 0 -- -- 88
2018-08-11 07:00:00 18.7 7 Nordeste 10 Nordeste 0 -- -- 87
2018-08-11 06:00:00 19.5 8 Nordeste 10 Nordeste 0 -- -- 85
2018-08-11 05:00:00 21.2 3 Este 10 Este 0 -- -- 79
2018-08-11 04:00:00 21.7 6 Este 12 Este 0 -- -- 77
2018-08-11 03:00:00 22.6 5 Sudeste 15 Sur 0 -- -- 75
2018-08-11 02:00:00 22.8 2 Este 8 Noroeste 0 -- -- 81
2018-08-11 01:00:00 22.8 4 Oeste 9 Este 0.2 -- -- 81
2018-08-11 00:00:00 22.6 4 Sudeste 30 Oeste 0.8 -- -- 81
2018-08-10 23:00:00 26.5 2 Sur 10 Nordeste 0 -- -- 43
2018-08-10 22:00:00 28.2 0 Calma 9 Norte 0 -- -- 39
2018-08-10 21:00:00 32.2 2 Noroeste 9 Oeste 0 -- -- 31
2018-08-10 20:00:00 33 5 Sur 13 Sur 0 -- -- 30
2018-08-10 19:00:00 31.9 0 Calma 15 Oeste 0 -- -- 32
2018-08-10 18:00:00 32.8 6 Sur 23 Oeste 0 -- -- 32
2018-08-10 17:00:00 33.4 7 Oeste 31 Sur 0 -- -- 31
2018-08-10 16:00:00 31.7 3 Oeste 15 Este 0 -- -- 37
2018-08-10 15:00:00 30.1 5 Sudeste 17 Este 0 -- -- 40
2018-08-10 14:00:00 29.4 9 Nordeste 22 Este 0 -- -- 41
2018-08-10 13:00:00 28 7 Este 15 Nordeste 0 -- -- 42
2018-08-10 12:00:00 25.5 8 Nordeste 20 Este 0 -- -- 45
2018-08-10 11:00:00 22.4 14 Nordeste 23 Este 0 -- -- 48
2018-08-10 10:00:00 18.5 15 Nordeste 23 Este 0 -- -- 56
2018-08-10 09:00:00 17.2 15 Este 26 Nordeste 0 -- -- 60
2018-08-10 08:00:00 16.2 15 Este 24 Este 0 -- -- 62
2018-08-10 07:00:00 15.6 13 Nordeste 27 Nordeste 0 -- -- 63
2018-08-10 06:00:00 16 18 Nordeste 34 Este 0 -- -- 62
2018-08-10 05:00:00 16.4 19 Este 35 Nordeste 0 -- -- 61
2018-08-10 04:00:00 16.9 22 Nordeste 35 Nordeste 0 -- -- 59
2018-08-10 03:00:00 17.6 20 Nordeste 36 Nordeste 0 -- -- 58
2018-08-10 02:00:00 18.5 25 Nordeste 39 Nordeste 0 -- -- 56
2018-08-10 01:00:00 19.7 26 Nordeste 41 Nordeste 0 -- -- 52
2018-08-10 00:00:00 21.3 35 Nordeste 50 Nordeste 0 -- -- 48
2018-08-09 23:00:00 23.7 28 Nordeste 44 Nordeste 0 -- -- 43
2018-08-09 22:00:00 26.4 19 Nordeste 32 Nordeste 0 -- -- 33
2018-08-09 21:00:00 28.1 14 Nordeste 22 Nordeste 0 -- -- 33
2018-08-09 20:00:00 30.7 6 Sur 14 Sudoeste 0 -- -- 25
2018-08-09 19:00:00 31.8 7 Sudoeste 20 Sudoeste 0 -- -- 23
2018-08-09 18:00:00 32 5 Sudoeste 31 Sudoeste 0 -- -- 22
2018-08-09 17:00:00 32.1 12 Sudoeste 24 Oeste 0 -- -- 22
2018-08-09 16:00:00 31.7 8 Sudeste 24 Sudoeste 0 -- -- 25
2018-08-09 15:00:00 30.8 9 Oeste 24 Oeste 0 -- -- 25
2018-08-09 14:00:00 30.1 11 Oeste 23 Oeste 0 -- -- 26
2018-08-09 13:00:00 28.8 8 Noroeste 19 Oeste 0 -- -- 30
2018-08-09 12:00:00 27.4 7 Sudoeste 21 Oeste 0 -- -- 32
2018-08-09 11:00:00 25.5 6 Este 14 Este 0 -- -- 41
2018-08-09 10:00:00 23.3 5 Este 8 Este 0 -- -- 42
2018-08-09 09:00:00 19.1 4 Este 7 Este 0 -- -- 49
2018-08-09 08:00:00 15.3 3 Nordeste 7 Nordeste 0 -- -- 58
2018-08-09 07:00:00 15.4 2 Este 8 Nordeste 0 -- -- 56
2018-08-09 06:00:00 17 2 Este 8 Nordeste 0 -- -- 50
2018-08-09 05:00:00 18.6 6 Este 9 Este 0 -- -- 44
2018-08-09 04:00:00 20.5 2 Sudoeste 7 Sudoeste 0 -- -- 38
2018-08-09 03:00:00 23.4 6 Oeste 18 Sudoeste 0 -- -- 31
2018-08-09 02:00:00 24.7 10 Sur 19 Sur 0 -- -- 28
2018-08-09 01:00:00 25.6 10 Sur 21 Sur 0 -- -- 28
2018-08-09 00:00:00 26.5 12 Sur 20 Sur 0 -- -- 24
2018-08-08 23:00:00 27 8 Sur 15 Oeste 0 -- -- 23
2018-08-08 22:00:00 29.2 9 Sudoeste 28 Oeste 0 -- -- 19
2018-08-08 21:00:00 31.4 18 Oeste 40 Oeste 0 -- -- 17
2018-08-08 20:00:00 33.5 21 Oeste 44 Oeste 0 -- -- 16
2018-08-08 19:00:00 34.7 27 Oeste 43 Oeste 0 -- -- 18
2018-08-08 18:00:00 35.7 26 Oeste 48 Oeste 0 -- -- 19
2018-08-08 17:00:00 36.2 22 Sudoeste 45 Sudoeste 0 -- -- 20
2018-08-08 16:00:00 35.3 19 Oeste 44 Sudoeste 0 -- -- 21
2018-08-08 15:00:00 34.4 19 Oeste 32 Sudoeste 0 -- -- 22
2018-08-08 14:00:00 33.6 13 Oeste 24 Oeste 0 -- -- 24
2018-08-08 13:00:00 32.5 8 Sur 19 Oeste 0 -- -- 28
2018-08-08 12:00:00 29.9 4 Sudoeste 12 Oeste 0 -- -- 33
2018-08-08 11:00:00 26.7 5 Nordeste 12 Este 0 -- -- 42
2018-08-08 10:00:00 23.3 8 Este 13 Este 0 -- -- 52
2018-08-08 09:00:00 19.8 9 Este 17 Nordeste 0 -- -- 62
2018-08-08 08:00:00 17.5 9 Este 13 Este 0 -- -- 66
2018-08-08 07:00:00 17.5 8 Este 11 Este 0 -- -- 65
2018-08-08 06:00:00 17.9 5 Este 8 Este 0 -- -- 62
2018-08-08 05:00:00 19.4 6 Este 12 Este 0 -- -- 59
2018-08-08 04:00:00 21.2 3 Noroeste 12 Sudoeste 0 -- -- 53
2018-08-08 03:00:00 23.5 8 Sur 17 Sudeste 0 -- -- 47
2018-08-08 02:00:00 24.5 10 Sur 31 Sur 0 -- -- 46
2018-08-08 01:00:00 25.4 16 Sur 37 Sur 0 -- -- 44
2018-08-08 00:00:00 25.5 18 Sur 35 Sur 0 -- -- 39
2018-08-07 23:00:00 27.4 8 Nordeste 11 Nordeste 0 -- -- 26
2018-08-07 22:00:00 29.2 7 Sur 22 Oeste 0 -- -- 20
2018-08-07 21:00:00 33.1 13 Oeste 34 Sudoeste 0 -- -- 18
2018-08-07 20:00:00 35.2 19 Oeste 42 Oeste 0 -- -- 17
2018-08-07 19:00:00 36.5 29 Oeste 44 Oeste 0 -- -- 15
2018-08-07 18:00:00 37.7 24 Oeste 46 Oeste 0 -- -- 16
2018-08-07 17:00:00 38.1 23 Oeste 44 Oeste 0 -- -- 17
2018-08-07 16:00:00 38 20 Sudoeste 37 Sudoeste 0 -- -- 18
2018-08-07 15:00:00 37.4 18 Sudoeste 41 Sudoeste 0 -- -- 20
2018-08-07 14:00:00 36.1 15 Oeste 32 Oeste 0 -- -- 23
2018-08-07 13:00:00 35.5 8 Sudoeste 22 Sudoeste 0 -- -- 25
2018-08-07 12:00:00 33.3 8 Sudoeste 18 Sudoeste 0 -- -- 29
2018-08-07 11:00:00 31.8 9 Sur 18 Sur 0 -- -- 31
2018-08-07 10:00:00 28.6 5 Sudoeste 22 Sur 0 -- -- 36
2018-08-07 09:00:00 24 5 Norte 18 Este 0 -- -- 43
2018-08-07 08:00:00 20.3 4 Este 8 Nordeste 0 -- -- 56
2018-08-07 07:00:00 20.7 4 Nordeste 10 Nordeste 0 -- -- 54
2018-08-07 06:00:00 22.6 2 Este 13 Sudeste 0 -- -- 47
2018-08-07 05:00:00 25 8 Sudeste 14 Norte 0 -- -- 41
2018-08-07 04:00:00 27.9 5 Sudoeste 22 Sur 0 -- -- 33
2018-08-07 03:00:00 28.9 10 Oeste 28 Sudoeste 0 -- -- 32
2018-08-07 02:00:00 29.5 10 Sudoeste 35 Sur 0 -- -- 32
2018-08-07 01:00:00 29.7 21 Sur 36 Sur 0 -- -- 32
2018-08-07 00:00:00 26.5 7 Sudeste 23 Este 0 -- -- 35
2018-08-06 23:00:00 27.2 9 Este 15 Este 0 -- -- 31
2018-08-06 22:00:00 31.1 0 Calma 11 Sudoeste 0 -- -- 25
2018-08-06 21:00:00 34.4 12 Sudoeste 28 Oeste 0 -- -- 20
2018-08-06 20:00:00 35.3 3 Sudeste 29 Este 0 -- -- 20
2018-08-06 19:00:00 35 21 Este 54 Este 0 -- -- 20
2018-08-06 18:00:00 38.6 19 Norte 37 Norte 0 -- -- 17
2018-08-06 17:00:00 39.9 6 Sur 21 Noroeste 0 -- -- 19
2018-08-06 16:00:00 38.4 7 Norte 16 Sur 0 -- -- 20
2018-08-06 15:00:00 37.8 7 Oeste 15 Nordeste 0 -- -- 21
2018-08-06 14:00:00 36.7 6 Noroeste 14 Oeste 0 -- -- 23
2018-08-06 13:00:00 34.4 5 Noroeste 11 Sudoeste 0 -- -- 27
2018-08-06 12:00:00 32.1 6 Noroeste 10 Norte 0 -- -- 35
2018-08-06 11:00:00 30 3 Nordeste 12 Este 0 -- -- 40
2018-08-06 10:00:00 26.1 8 Este 13 Este 0 -- -- 45
2018-08-06 09:00:00 22 8 Este 12 Este 0 -- -- 53
2018-08-06 08:00:00 19.3 7 Nordeste 13 Este 0 -- -- 57
2018-08-06 07:00:00 19.5 9 Este 13 Nordeste 0 -- -- 53
2018-08-06 06:00:00 19.2 5 Este 9 Este 0 -- -- 51
2018-08-06 05:00:00 20.1 7 Nordeste 11 Este 0 -- -- 47
2018-08-06 04:00:00 21.5 4 Este 15 Este 0 -- -- 41
2018-08-06 03:00:00 23.2 12 Nordeste 17 Nordeste 0 -- -- 36
2018-08-06 02:00:00 23.9 10 Este 16 Este 0 -- -- 34
2018-08-06 01:00:00 23.5 10 Este 14 Este 0 -- -- 37
2018-08-06 00:00:00 25.3 6 Nordeste 9 Nordeste 0 -- -- 32
2018-08-05 23:00:00 28.7 7 Este 17 Este 0 -- -- 25
2018-08-05 22:00:00 32 3 Norte 14 Noroeste 0 -- -- 30
2018-08-05 21:00:00 35.9 3 Sudoeste 8 Sudoeste 0 -- -- 27
2018-08-05 20:00:00 38.1 5 Oeste 13 Oeste 0 -- -- 21
2018-08-05 19:00:00 38.6 8 Noroeste 22 Sudoeste 0 -- -- 21
2018-08-05 18:00:00 38.9 6 Sudoeste 20 Sudoeste 0 -- -- 21
2018-08-05 17:00:00 38.7 9 Oeste 19 Oeste 0 -- -- 22
2018-08-05 16:00:00 38 9 Sudoeste 24 Oeste 0 -- -- 24
2018-08-05 15:00:00 36.9 5 Oeste 20 Sudoeste 0 -- -- 25
2018-08-05 14:00:00 36.9 14 Sur 24 Sur 0 -- -- 26
2018-08-05 13:00:00 35.8 6 Sudeste 16 Sudeste 0 -- -- 28
2018-08-05 12:00:00 33.4 6 Nordeste 15 Este 0 -- -- 31
2018-08-05 11:00:00 29.7 11 Este 17 Este 0 -- -- 38
2018-08-05 10:00:00 26.3 11 Este 17 Este 0 -- -- 45
2018-08-05 09:00:00 23 12 Este 18 Este 0 -- -- 52
2018-08-05 08:00:00 21.3 9 Este 16 Este 0 -- -- 56
2018-08-05 07:00:00 20.7 7 Este 15 Este 0 -- -- 57
2018-08-05 06:00:00 21.6 9 Este 16 Este 0 -- -- 54
2018-08-05 05:00:00 22.4 9 Este 14 Este 0 -- -- 52
2018-08-05 04:00:00 23.1 9 Este 15 Este 0 -- -- 51
2018-08-05 03:00:00 24.6 9 Este 22 Este 0 -- -- 46
2018-08-05 02:00:00 25.5 15 Este 24 Este 0 -- -- 42
2018-08-05 01:00:00 26.7 16 Este 23 Este 0 -- -- 36
2018-08-05 00:00:00 27.5 13 Este 17 Este 0 -- -- 30
2018-08-04 23:00:00 29 5 Este 18 Nordeste 0 -- -- 27
2018-08-04 22:00:00 31.1 4 Este 12 Norte 0 -- -- 26
2018-08-04 21:00:00 35.4 7 Norte 21 Nordeste 0 -- -- 19
2018-08-04 20:00:00 37.3 15 Nordeste 22 Este 0 -- -- 18
2018-08-04 19:00:00 38.4 12 Nordeste 22 Nordeste 0 -- -- 17
2018-08-04 18:00:00 39.2 13 Este 26 Nordeste 0 -- -- 17
2018-08-04 17:00:00 39.1 11 Este 28 Nordeste 0 -- -- 17
2018-08-04 16:00:00 38.3 15 Nordeste 28 Nordeste 0 -- -- 17
2018-08-04 15:00:00 37.5 17 Nordeste 27 Este 0 -- -- 18
2018-08-04 14:00:00 36.4 10 Nordeste 24 Nordeste 0 -- -- 18
2018-08-04 13:00:00 34.8 18 Nordeste 27 Nordeste 0 -- -- 20
2018-08-04 12:00:00 32.7 17 Este 28 Nordeste 0 -- -- 28
2018-08-04 11:00:00 29.7 16 Nordeste 23 Este 0 -- -- 37
2018-08-04 10:00:00 26.3 14 Nordeste 19 Nordeste 0 -- -- 42
2018-08-04 09:00:00 21.1 3 Este 9 Este 0 -- -- 53
2018-08-04 08:00:00 17 4 Sudeste 5 Sudeste 0 -- -- 62
2018-08-04 07:00:00 17.6 2 Este 8 Sudoeste 0 -- -- 59
2018-08-04 06:00:00 19.9 3 Nordeste 14 Este 0 -- -- 52
2018-08-04 05:00:00 20.4 9 Este 15 Este 0 -- -- 50
2018-08-04 04:00:00 21.8 8 Nordeste 15 Nordeste 0 -- -- 43
2018-08-04 03:00:00 24.7 14 Este 23 Este 0 -- -- 36
2018-08-04 02:00:00 24.4 14 Nordeste 17 Nordeste 0 -- -- 34
2018-08-04 01:00:00 24.7 9 Este 12 Este 0 -- -- 36
2018-08-04 00:00:00 27.2 3 Este 10 Nordeste 0 -- -- 36
2018-08-03 23:00:00 29.8 6 Este 18 Nordeste 0 -- -- 31
2018-08-03 22:00:00 34.1 13 Nordeste 21 Nordeste 0 -- -- 25
2018-08-03 21:00:00 36.2 14 Nordeste 28 Norte 0 -- -- 23
2018-08-03 20:00:00 38.1 19 Norte 33 Nordeste 0 -- -- 21
2018-08-03 19:00:00 39.2 19 Norte 34 Norte 0 -- -- 21
2018-08-03 18:00:00 40 16 Norte 36 Norte 0 -- -- 20
2018-08-03 17:00:00 40.5 19 Nordeste 63 Noroeste 0 -- -- 20
2018-08-03 16:00:00 40 13 Nordeste 40 Nordeste 0 -- -- 21
2018-08-03 15:00:00 39.9 6 Sur 17 Sudeste 0 -- -- 23
2018-08-03 14:00:00 38.8 10 Este 19 Este 0 -- -- 24
2018-08-03 13:00:00 37.2 7 Este 13 Este 0 -- -- 25
2018-08-03 12:00:00 33.9 3 Nordeste 11 Nordeste 0 -- -- 33
2018-08-03 11:00:00 30.9 3 Nordeste 10 Este 0 -- -- 39
2018-08-03 10:00:00 27.4 7 Este 13 Este 0 -- -- 47
2018-08-03 09:00:00 23.8 9 Este 13 Este 0 -- -- 55
2018-08-03 08:00:00 21.7 8 Este 11 Este 0 -- -- 60
2018-08-03 07:00:00 21.5 7 Este 10 Este 0 -- -- 60
2018-08-03 06:00:00 22.6 8 Nordeste 12 Este 0 -- -- 57
2018-08-03 05:00:00 24.5 3 Este 8 Noroeste 0 -- -- 48
2018-08-03 04:00:00 26.8 5 Noroeste 17 Este 0 -- -- 43
2018-08-03 03:00:00 26.6 12 Nordeste 19 Nordeste 0 -- -- 45
2018-08-03 02:00:00 26.9 10 Este 18 Nordeste 0 -- -- 44
2018-08-03 01:00:00 27.4 10 Nordeste 21 Este 0 -- -- 39
2018-08-03 00:00:00 27.4 9 Este 16 Nordeste 0 -- -- 34
2018-08-02 23:00:00 28 5 Nordeste 8 Nordeste 0 -- -- 38
2018-08-02 22:00:00 32.3 3 Oeste 5 Sur 0 -- -- 31
2018-08-02 21:00:00 37.3 2 Sur 9 Sudoeste 0 -- -- 27
2018-08-02 20:00:00 39.3 5 Sur 13 Oeste 0 -- -- 21
2018-08-02 19:00:00 40.1 4 Sur 22 Oeste 0 -- -- 19
2018-08-02 18:00:00 40.8 4 Oeste 15 Sudoeste 0 -- -- 18
2018-08-02 17:00:00 39.6 6 Este 22 Noroeste 0 -- -- 19
2018-08-02 16:00:00 38.8 5 Norte 22 Sudoeste 0 -- -- 19
2018-08-02 15:00:00 38.3 9 Noroeste 18 Oeste 0 -- -- 20
2018-08-02 14:00:00 37.3 9 Oeste 20 Sudoeste 0 -- -- 22
2018-08-02 13:00:00 35.9 9 Oeste 18 Sudoeste 0 -- -- 22
2018-08-02 12:00:00 33.9 5 Nordeste 13 Este 0 -- -- 27
2018-08-02 11:00:00 31 5 Nordeste 12 Este 0 -- -- 32
2018-08-02 10:00:00 27 8 Este 14 Este 0 -- -- 45
2018-08-02 09:00:00 23.1 10 Este 14 Este 0 -- -- 52
2018-08-02 08:00:00 19.6 6 Este 11 Este 0 -- -- 59
2018-08-02 07:00:00 19.2 4 Este 16 Este 0 -- -- 56
2018-08-02 06:00:00 20.5 13 Nordeste 18 Nordeste 0 -- -- 52
2018-08-02 05:00:00 21 9 Este 15 Nordeste 0 -- -- 49
2018-08-02 04:00:00 23.1 12 Nordeste 24 Este 0 -- -- 43
2018-08-02 03:00:00 24.4 9 Este 13 Nordeste 0 -- -- 39
2018-08-02 02:00:00 26.6 6 Oeste 14 Sudoeste 0 -- -- 32
2018-08-02 01:00:00 24.4 8 Nordeste 12 Nordeste 0 -- -- 37
2018-08-02 00:00:00 24.3 4 Norte 9 Nordeste 0 -- -- 36
2018-08-01 23:00:00 26.9 5 Este 8 Nordeste 0 -- -- 35
2018-08-01 22:00:00 30.3 3 Este 8 Oeste 0 -- -- 31
2018-08-01 21:00:00 36.2 7 Oeste 17 Sudoeste 0 -- -- 20
2018-08-01 20:00:00 38 9 Oeste 24 Noroeste 0 -- -- 19
2018-08-01 19:00:00 38.4 12 Oeste 23 Oeste 0 -- -- 19
2018-08-01 18:00:00 38.6 13 Oeste 21 Oeste 0 -- -- 20
2018-08-01 17:00:00 38.2 10 Noroeste 24 Oeste 0 -- -- 21
2018-08-01 16:00:00 37.9 13 Oeste 35 Noroeste 0 -- -- 21
2018-08-01 15:00:00 36.9 7 Norte 19 Noroeste 0 -- -- 23
2018-08-01 14:00:00 35.2 7 Nordeste 15 Este 0 -- -- 25
2018-08-01 13:00:00 33.9 6 Norte 14 Nordeste 0 -- -- 28
2018-08-01 12:00:00 31.8 5 Nordeste 13 Nordeste 0 -- -- 31
2018-08-01 11:00:00 29.2 6 Nordeste 13 Este 0 -- -- 36
2018-08-01 10:00:00 26 6 Este 13 Este 0 -- -- 47
2018-08-01 09:00:00 22.3 9 Este 14 Este 0 -- -- 55
2018-08-01 08:00:00 19.1 4 Este 10 Este 0 -- -- 60
2018-08-01 07:00:00 17.8 5 Este 13 Nordeste 0 -- -- 59
2018-08-01 06:00:00 18.4 9 Este 13 Este 0 -- -- 52
2018-08-01 05:00:00 19 8 Este 15 Este 0 -- -- 46
2018-08-01 04:00:00 19.7 9 Este 17 Nordeste 0 -- -- 43
2018-08-01 03:00:00 20.1 10 Nordeste 15 Nordeste 0 -- -- 41
2018-08-01 02:00:00 19.7 6 Este 12 Este 0 -- -- 42
2018-08-01 01:00:00 20.3 7 Este 9 Nordeste 0 -- -- 42
2018-08-01 00:00:00 22 0 Calma 8 Este 0 -- -- 43
2018-07-31 23:00:00 24.8 5 Nordeste 8 Nordeste 0 -- -- 36
2018-07-31 22:00:00 28.3 0 Calma 8 Sudoeste 0 -- -- 29
2018-07-31 21:00:00 33.9 5 Sudoeste 15 Sudoeste 0 -- -- 21
2018-07-31 20:00:00 35.6 8 Oeste 23 Oeste 0 -- -- 18
2018-07-31 19:00:00 36 14 Oeste 27 Sudoeste 0 -- -- 18
2018-07-31 18:00:00 36.2 13 Oeste 28 Sudoeste 0 -- -- 18
2018-07-31 17:00:00 36.1 15 Oeste 32 Oeste 0 -- -- 18
2018-07-31 16:00:00 35.7 11 Oeste 38 Oeste 0 -- -- 19
2018-07-31 15:00:00 34.9 13 Oeste 28 Oeste 0 -- -- 21
2018-07-31 14:00:00 34.2 12 Sudoeste 25 Oeste 0 -- -- 22
2018-07-31 13:00:00 33.4 6 Sudeste 14 Sudoeste 0 -- -- 28
2018-07-31 12:00:00 30.7 5 Nordeste 17 Nordeste 0 -- -- 34
2018-07-31 11:00:00 28.6 12 Nordeste 16 Nordeste 0 -- -- 39
2018-07-31 10:00:00 25.6 7 Este 13 Este 0 -- -- 43
2018-07-31 09:00:00 21 6 Este 13 Nordeste 0 -- -- 50
2018-07-31 08:00:00 16.8 5 Este 9 Nordeste 0 -- -- 54
2018-07-31 07:00:00 15.5 7 Nordeste 10 Este 0 -- -- 56
2018-07-31 06:00:00 16.1 8 Este 10 Nordeste 0 -- -- 51
2018-07-31 05:00:00 15.9 5 Este 10 Este 0 -- -- 49
2018-07-31 04:00:00 17 4 Sudeste 11 Nordeste 0 -- -- 47
2018-07-31 03:00:00 17 5 Este 11 Nordeste 0 -- -- 44
2018-07-31 02:00:00 18.4 4 Nordeste 9 Este 0 -- -- 40
2018-07-31 01:00:00 19.1 8 Nordeste 9 Nordeste 0 -- -- 39
2018-07-31 00:00:00 20.9 2 Este 8 Norte 0 -- -- 37
2018-07-30 23:00:00 23.3 0 Calma 4 Sur 0 -- -- 28
2018-07-30 22:00:00 28 4 Sudoeste 14 Sudoeste 0 -- -- 22
2018-07-30 21:00:00 32.6 8 Sudoeste 21 Sudoeste 0 -- -- 20
2018-07-30 20:00:00 34.2 13 Sudoeste 29 Oeste 0 -- -- 18
2018-07-30 19:00:00 35 13 Oeste 25 Sudoeste 0 -- -- 18
2018-07-30 18:00:00 35.1 13 Oeste 28 Oeste 0 -- -- 19
2018-07-30 17:00:00 34.7 12 Noroeste 25 Oeste 0 -- -- 20
2018-07-30 16:00:00 34.6 10 Sudoeste 23 Oeste 0 -- -- 20
2018-07-30 15:00:00 33.6 12 Oeste 22 Oeste 0 -- -- 22
2018-07-30 14:00:00 32.1 9 Oeste 18 Oeste 0 -- -- 24
2018-07-30 13:00:00 30.8 4 Sudoeste 14 Norte 0 -- -- 26
2018-07-30 12:00:00 28.4 5 Nordeste 10 Norte 0 -- -- 28
2018-07-30 11:00:00 26.2 0 Calma 6 Sur 0 -- -- 33
2018-07-30 10:00:00 22.6 2 Nordeste 6 Noroeste 0 -- -- 39
2018-07-30 09:00:00 19.1 3 Nordeste 9 Este 0 -- -- 45
2018-07-30 08:00:00 16 6 Este 10 Este 0 -- -- 51
2018-07-30 07:00:00 14.8 5 Este 10 Este 0 -- -- 54
2018-07-30 06:00:00 15.1 6 Este 11 Este 0 -- -- 52
2018-07-30 05:00:00 15.5 6 Este 9 Nordeste 0 -- -- 49
2018-07-30 04:00:00 16.5 6 Este 12 Este 0 -- -- 47
2018-07-30 03:00:00 17.1 7 Este 10 Este 0 -- -- 46
2018-07-30 02:00:00 18.2 4 Este 12 Este 0 -- -- 44
2018-07-30 01:00:00 20.9 3 Nordeste 13 Este 0 -- -- 36
2018-07-30 00:00:00 23.1 0 Calma 10 Sur 0 -- -- 30
2018-07-29 23:00:00 25.3 6 Sur 13 Sudoeste 0 -- -- 27
2018-07-29 22:00:00 27.5 8 Sudoeste 14 Sudoeste 0 -- -- 24
2018-07-29 21:00:00 30.2 8 Sudoeste 22 Sudoeste 0 -- -- 20
2018-07-29 20:00:00 32.8 12 Sudoeste 24 Oeste 0 -- -- 19
2018-07-29 19:00:00 33.7 12 Oeste 27 Sudoeste 0 -- -- 17
2018-07-29 18:00:00 33.9 14 Sudoeste 28 Oeste 0 -- -- 15
2018-07-29 17:00:00 33.5 16 Oeste 29 Oeste 0 -- -- 16
2018-07-29 16:00:00 32.7 16 Oeste 33 Oeste 0 -- -- 18
2018-07-29 15:00:00 31.5 16 Oeste 28 Sudoeste 0 -- -- 21
2018-07-29 14:00:00 30.2 17 Oeste 33 Oeste 0 -- -- 24
2018-07-29 13:00:00 29.1 11 Sudoeste 27 Oeste 0 -- -- 33
2018-07-29 12:00:00 27 11 Sudoeste 26 Oeste 0 -- -- 38
2018-07-29 11:00:00 25.6 14 Sudoeste 25 Sudoeste 0 -- -- 42
2018-07-29 10:00:00 23.6 3 Sudoeste 10 Nordeste 0 -- -- 46
2018-07-29 09:00:00 19.2 6 Nordeste 9 Este 0 -- -- 46
2018-07-29 08:00:00 16.5 5 Nordeste 12 Este 0 -- -- 51
2018-07-29 07:00:00 15.2 5 Este 13 Nordeste 0 -- -- 53
2018-07-29 06:00:00 15.6 6 Nordeste 9 Este 0 -- -- 52
2018-07-29 05:00:00 16.7 7 Nordeste 9 Nordeste 0 -- -- 49
2018-07-29 04:00:00 18.5 3 Nordeste 7 Oeste 0 -- -- 47
2018-07-29 03:00:00 21.8 0 Calma 15 Sudoeste 0 -- -- 40
2018-07-29 02:00:00 23.1 6 Sudoeste 16 Sudoeste 0 -- -- 38
2018-07-29 01:00:00 20 5 Sudoeste 9 Sudoeste 0 -- -- 36
2018-07-29 00:00:00 21.3 0 Calma 4 Sudoeste 0 -- -- 33
2018-07-28 23:00:00 23.5 2 Oeste 6 Sur 0 -- -- 27
2018-07-28 22:00:00 27.5 3 Sur 17 Oeste 0 -- -- 23
2018-07-28 21:00:00 31.4 10 Oeste 30 Oeste 0 -- -- 18
2018-07-28 20:00:00 32.9 21 Oeste 35 Oeste 0 -- -- 14
2018-07-28 19:00:00 33.9 19 Oeste 30 Oeste 0 -- -- 12
2018-07-28 18:00:00 33.8 22 Oeste 36 Oeste 0 -- -- 12
2018-07-28 17:00:00 34 21 Oeste 34 Oeste 0 -- -- 12
2018-07-28 16:00:00 33.8 20 Oeste 36 Oeste 0 -- -- 12
2018-07-28 15:00:00 32.7 19 Oeste 45 Oeste 0 -- -- 18
2018-07-28 14:00:00 31.6 18 Oeste 31 Oeste 0 -- -- 19
2018-07-28 13:00:00 30.1 13 Sudoeste 25 Oeste 0 -- -- 24
2018-07-28 12:00:00 28.1 14 Oeste 23 Oeste 0 -- -- 32
2018-07-28 11:00:00 25.6 9 Oeste 16 Oeste 0 -- -- 38
2018-07-28 10:00:00 22.2 4 Noroeste 7 Noroeste 0 -- -- 43
2018-07-28 09:00:00 18.3 6 Este 13 Este 0 -- -- 52
2018-07-28 08:00:00 13.6 4 Nordeste 8 Nordeste 0 -- -- 64
2018-07-28 07:00:00 13 6 Este 8 Este 0 -- -- 64
2018-07-28 06:00:00 13.5 4 Este 9 Este 0 -- -- 63
2018-07-28 05:00:00 14.8 5 Este 10 Este 0 -- -- 60
2018-07-28 04:00:00 15.8 5 Nordeste 7 Nordeste 0 -- -- 57
2018-07-28 03:00:00 16.8 7 Nordeste 11 Nordeste 0 -- -- 56
2018-07-28 02:00:00 17.9 3 Nordeste 7 Nordeste 0 -- -- 54
2018-07-28 01:00:00 19.8 2 Nordeste 7 Sur 0 -- -- 46
2018-07-28 00:00:00 22.2 0 Calma 9 Oeste 0 -- -- 40
2018-07-27 23:00:00 25.2 5 Noroeste 14 Oeste 0 -- -- 33
2018-07-27 22:00:00 29.1 10 Oeste 23 Sudoeste 0 -- -- 27
2018-07-27 21:00:00 31.4 14 Oeste 34 Oeste 0 -- -- 25
2018-07-27 20:00:00 33.6 18 Oeste 34 Oeste 0 -- -- 22
2018-07-27 19:00:00 33.9 19 Oeste 35 Oeste 0 -- -- 23
2018-07-27 18:00:00 34.6 15 Oeste 38 Oeste 0 -- -- 23
2018-07-27 17:00:00 35 19 Oeste 37 Oeste 0 -- -- 22
2018-07-27 16:00:00 34.9 21 Sudoeste 39 Sudoeste 0 -- -- 22
2018-07-27 15:00:00 34.2 18 Sudoeste 37 Oeste 0 -- -- 23
2018-07-27 14:00:00 33.3 18 Sudoeste 33 Sudoeste 0 -- -- 24
2018-07-27 13:00:00 32 12 Sudoeste 24 Oeste 0 -- -- 26
2018-07-27 12:00:00 29.6 14 Oeste 20 Oeste 0 -- -- 30
2018-07-27 11:00:00 27.2 8 Oeste 14 Noroeste 0 -- -- 32
2018-07-27 10:00:00 23.9 3 Sudoeste 8 Nordeste 0 -- -- 37
2018-07-27 09:00:00 19.6 6 Este 10 Este 0 -- -- 51
2018-07-27 08:00:00 16 3 Nordeste 9 Este 0 -- -- 57
2018-07-27 07:00:00 15.3 7 Este 11 Este 0 -- -- 59
2018-07-27 06:00:00 15.1 6 Este 10 Este 0 -- -- 60
2018-07-27 05:00:00 16.1 5 Nordeste 9 Nordeste 0 -- -- 56
2018-07-27 04:00:00 16.6 5 Este 8 Nordeste 0 -- -- 54
2018-07-27 03:00:00 17.8 9 Este 13 Este 0 -- -- 50
2018-07-27 02:00:00 19.3 3 Nordeste 7 Norte 0 -- -- 49
2018-07-27 01:00:00 20.5 0 Calma 5 Sudeste 0 -- -- 43
2018-07-27 00:00:00 22.5 4 Sur 9 Sudoeste 0 -- -- 39
2018-07-26 23:00:00 25.2 4 Sur 10 Oeste 0 -- -- 35
2018-07-26 22:00:00 29.7 8 Oeste 18 Noroeste 0 -- -- 27
2018-07-26 21:00:00 32.8 10 Oeste 20 Oeste 0 -- -- 27
2018-07-26 20:00:00 34 15 Oeste 30 Oeste 0 -- -- 25
2018-07-26 19:00:00 34.9 13 Oeste 33 Oeste 0 -- -- 23
2018-07-26 18:00:00 35.4 12 Sudoeste 26 Sur 0 -- -- 22
2018-07-26 17:00:00 35.1 17 Sudoeste 31 Sudoeste 0 -- -- 23
2018-07-26 16:00:00 34.9 17 Oeste 31 Sudoeste 0 -- -- 23
2018-07-26 15:00:00 33.8 12 Oeste 28 Oeste 0 -- -- 25
2018-07-26 14:00:00 32.6 12 Oeste 23 Oeste 0 -- -- 26
2018-07-26 13:00:00 31.5 9 Oeste 22 Oeste 0 -- -- 25
2018-07-26 12:00:00 30.2 10 Oeste 18 Oeste 0 -- -- 28
2018-07-26 11:00:00 27.4 3 Norte 9 Noroeste 0 -- -- 37
2018-07-26 10:00:00 24.4 3 Nordeste 6 Este 0 -- -- 44
2018-07-26 09:00:00 20.3 4 Este 13 Este 0 -- -- 51
2018-07-26 08:00:00 16.7 3 Este 12 Nordeste 0 -- -- 58
2018-07-26 07:00:00 15.2 9 Este 12 Este 0 -- -- 60
2018-07-26 06:00:00 15.7 3 Este 9 Nordeste 0 -- -- 59
2018-07-26 05:00:00 16.3 4 Este 9 Nordeste 0 -- -- 56
2018-07-26 04:00:00 16.7 5 Este 10 Este 0 -- -- 53
2018-07-26 03:00:00 17.6 9 Este 11 Este 0 -- -- 50
2018-07-26 02:00:00 18.3 5 Nordeste 8 Nordeste 0 -- -- 50
2018-07-26 01:00:00 19.9 4 Este 6 Nordeste 0 -- -- 46
2018-07-26 00:00:00 22.1 4 Nordeste 6 Nordeste 0 -- -- 40
2018-07-25 23:00:00 24.4 3 Este 5 Este 0 -- -- 34
2018-07-25 22:00:00 28.6 2 Sudeste 13 Noroeste 0 -- -- 30
2018-07-25 21:00:00 33.6 9 Oeste 14 Oeste 0 -- -- 21
2018-07-25 20:00:00 34.8 14 Oeste 22 Oeste 0 -- -- 19
2018-07-25 19:00:00 35.6 9 Oeste 26 Oeste 0 -- -- 18
2018-07-25 18:00:00 35.6 9 Oeste 29 Oeste 0 -- -- 19
2018-07-25 17:00:00 35.3 15 Oeste 27 Oeste 0 -- -- 20
2018-07-25 16:00:00 34.7 16 Oeste 36 Noroeste 0 -- -- 23
2018-07-25 15:00:00 33.8 18 Oeste 32 Oeste 0 -- -- 22
2018-07-25 14:00:00 32.3 11 Oeste 22 Oeste 0 -- -- 27
2018-07-25 13:00:00 31 10 Oeste 19 Oeste 0 -- -- 26
2018-07-25 12:00:00 28.6 9 Oeste 15 Oeste 0 -- -- 31
2018-07-25 11:00:00 26.2 4 Noroeste 12 Oeste 0 -- -- 35
2018-07-25 10:00:00 23.2 2 Norte 8 Este 0 -- -- 39
2018-07-25 09:00:00 19.6 5 Este 11 Este 0 -- -- 51
2018-07-25 08:00:00 16.1 5 Este 10 Este 0 -- -- 60
2018-07-25 07:00:00 14.8 6 Este 15 Este 0 -- -- 62
2018-07-25 06:00:00 14.6 7 Este 12 Este 0 -- -- 63
2018-07-25 05:00:00 15.6 7 Nordeste 13 Nordeste 0 -- -- 59
2018-07-25 04:00:00 16 7 Este 9 Este 0 -- -- 57
2018-07-25 03:00:00 17.3 4 Este 8 Este 0 -- -- 55
2018-07-25 02:00:00 18.7 4 Nordeste 6 Norte 0 -- -- 54
2018-07-25 01:00:00 19.5 2 Nordeste 6 Este 0 -- -- 49
2018-07-25 00:00:00 21.2 4 Oeste 5 Sudoeste 0 -- -- 42
2018-07-24 23:00:00 24.1 2 Sudeste 4 Sur 0 -- -- 35
2018-07-24 22:00:00 28.1 4 Sudoeste 18 Oeste 0 -- -- 29
2018-07-24 21:00:00 32 10 Oeste 22 Oeste 0 -- -- 23
2018-07-24 20:00:00 33.4 16 Oeste 31 Oeste 0 -- -- 20
2018-07-24 19:00:00 34 14 Oeste 28 Oeste 0 -- -- 21
2018-07-24 18:00:00 34.2 13 Oeste 30 Oeste 0 -- -- 21
2018-07-24 17:00:00 34.3 17 Oeste 35 Oeste 0 -- -- 20
2018-07-24 16:00:00 33.3 18 Oeste 31 Oeste 0 -- -- 23
2018-07-24 15:00:00 32.7 15 Oeste 31 Oeste 0 -- -- 26
2018-07-24 14:00:00 32 17 Oeste 33 Oeste 0 -- -- 28
2018-07-24 13:00:00 31.1 13 Sudoeste 30 Sudoeste 0 -- -- 31
2018-07-24 12:00:00 29.5 15 Sudoeste 25 Oeste 0 -- -- 33
2018-07-24 11:00:00 27.2 14 Oeste 20 Oeste 0 -- -- 39
2018-07-24 10:00:00 24 7 Oeste 12 Oeste 0 -- -- 43
2018-07-24 09:00:00 19.9 3 Este 8 Este 0 -- -- 56
2018-07-24 08:00:00 15.8 5 Este 9 Este 0 -- -- 66
2018-07-24 07:00:00 15.1 5 Este 13 Nordeste 0 -- -- 67
2018-07-24 06:00:00 15.1 6 Este 8 Nordeste 0 -- -- 63
2018-07-24 05:00:00 15.8 3 Nordeste 6 Nordeste 0 -- -- 59
2018-07-24 04:00:00 17.2 4 Norte 11 Este 0 -- -- 55
2018-07-24 03:00:00 18 6 Nordeste 7 Este 0 -- -- 52
2018-07-24 02:00:00 19.2 3 Nordeste 4 Nordeste 0 -- -- 50
2018-07-24 01:00:00 20.8 3 Nordeste 7 Nordeste 0 -- -- 45
2018-07-24 00:00:00 22.4 3 Este 4 Sudeste 0 -- -- 39
2018-07-23 23:00:00 24.9 3 Sur 7 Sudoeste 0 -- -- 33
2018-07-23 22:00:00 29.4 4 Sur 17 Oeste 0 -- -- 27
2018-07-23 21:00:00 33.5 10 Oeste 21 Oeste 0 -- -- 23
2018-07-23 20:00:00 34.8 15 Sudoeste 31 Oeste 0 -- -- 21
2018-07-23 19:00:00 35.3 18 Oeste 34 Oeste 0 -- -- 23
2018-07-23 18:00:00 35.6 13 Oeste 30 Sudoeste 0 -- -- 23
2018-07-23 17:00:00 35.6 8 Sudoeste 31 Sudoeste 0 -- -- 25
2018-07-23 16:00:00 35.2 9 Oeste 29 Oeste 0 -- -- 26
2018-07-23 15:00:00 34.1 9 Oeste 26 Oeste 0 -- -- 30
2018-07-23 14:00:00 33.2 4 Sur 22 Oeste 0 -- -- 32
2018-07-23 13:00:00 31.1 7 Este 16 Noroeste 0 -- -- 41
2018-07-23 12:00:00 28.5 7 Noroeste 15 Noroeste 0 -- -- 48
2018-07-23 11:00:00 27 6 Este 13 Nordeste 0 -- -- 52
2018-07-23 10:00:00 24.2 4 Nordeste 10 Este 0 -- -- 58
2018-07-23 09:00:00 20.9 8 Este 12 Este 0 -- -- 64
2018-07-23 08:00:00 18.2 6 Este 10 Este 0 -- -- 70
2018-07-23 07:00:00 17.2 6 Este 12 Este 0 -- -- 72
2018-07-23 06:00:00 17.9 9 Este 13 Este 0 -- -- 70
2018-07-23 05:00:00 18.4 8 Este 13 Este 0 -- -- 68
2018-07-23 04:00:00 19.1 7 Este 10 Este 0 -- -- 66
2018-07-23 03:00:00 20.2 10 Este 17 Este 0 -- -- 63
2018-07-23 02:00:00 21.3 8 Este 26 Este 0 -- -- 59
2018-07-23 01:00:00 21.6 10 Este 15 Este 0 -- -- 56
2018-07-23 00:00:00 21.9 7 Nordeste 13 Nordeste 0 -- -- 49
2018-07-22 23:00:00 23.9 8 Nordeste 9 Nordeste 0 -- -- 41
2018-07-22 22:00:00 27.1 3 Este 5 Este 0 -- -- 38
2018-07-22 21:00:00 32 3 Sur 10 Sur 0 -- -- 30
2018-07-22 20:00:00 32.7 4 Oeste 20 Oeste 0 -- -- 27
2018-07-22 19:00:00 32.3 10 Oeste 17 Sudoeste 0 -- -- 27
2018-07-22 18:00:00 32.9 9 Oeste 23 Oeste 0 -- -- 27
2018-07-22 17:00:00 32.7 8 Sudoeste 20 Oeste 0 -- -- 27
2018-07-22 16:00:00 31.8 7 Oeste 17 Norte 0 -- -- 30
2018-07-22 15:00:00 31 10 Oeste 18 Sudoeste 0 -- -- 34
2018-07-22 14:00:00 30 6 Sur 14 Oeste 0 -- -- 41
2018-07-22 13:00:00 27.6 9 Oeste 15 Sudoeste 0 -- -- 48
2018-07-22 12:00:00 27.8 4 Sudeste 19 Sur 0 -- -- 48
2018-07-22 11:00:00 26.2 8 Sur 16 Sudeste 0 -- -- 52
2018-07-22 10:00:00 22.1 2 Norte 9 Nordeste 0 -- -- 58
2018-07-22 09:00:00 19.1 9 Este 19 Nordeste 0 -- -- 71
2018-07-22 08:00:00 16.6 11 Este 17 Nordeste 0 -- -- 82
2018-07-22 07:00:00 15.9 7 Este 17 Nordeste 0 -- -- 82
2018-07-22 06:00:00 16.8 9 Este 20 Nordeste 0 -- -- 80
2018-07-22 05:00:00 18.1 8 Este 20 Este 0 -- -- 68
2018-07-22 04:00:00 19.3 13 Nordeste 31 Sudeste 0 -- -- 62
2018-07-22 03:00:00 19.7 9 Este 17 Este 0 -- -- 61
2018-07-22 02:00:00 20 10 Este 20 Nordeste 0 -- -- 58
2018-07-22 01:00:00 20.6 17 Nordeste 30 Este 0 -- -- 54
2018-07-22 00:00:00 21.7 25 Nordeste 41 Este 0 -- -- 50
2018-07-21 23:00:00 23.2 23 Nordeste 35 Nordeste 0 -- -- 45
2018-07-21 22:00:00 24.3 18 Nordeste 34 Nordeste 0 -- -- 45
2018-07-21 21:00:00 25.7 27 Nordeste 39 Nordeste 0 -- -- 42
2018-07-21 20:00:00 28.3 11 Nordeste 19 Este 0 -- -- 33
2018-07-21 19:00:00 30.4 7 Este 15 Nordeste 0 -- -- 30
2018-07-21 18:00:00 30.1 4 Sudeste 25 Oeste 0 -- -- 30
2018-07-21 17:00:00 30.9 8 Oeste 22 Sudoeste 0 -- -- 29
2018-07-21 16:00:00 29.8 11 Sudoeste 25 Noroeste 0 -- -- 32
2018-07-21 15:00:00 28.7 8 Sudoeste 26 Oeste 0 -- -- 34
2018-07-21 14:00:00 28.3 14 Oeste 25 Oeste 0 -- -- 35
2018-07-21 13:00:00 27.8 5 Oeste 16 Nordeste 0 -- -- 35
2018-07-21 12:00:00 25.3 7 Nordeste 19 Nordeste 0 -- -- 42
2018-07-21 11:00:00 23.3 12 Nordeste 21 Este 0 -- -- 50
2018-07-21 10:00:00 21 11 Nordeste 22 Nordeste 0 -- -- 57
2018-07-21 09:00:00 18.5 15 Nordeste 22 Nordeste 0 -- -- 66
2018-07-21 08:00:00 16.2 10 Este 20 Este 0 -- -- 77
2018-07-21 07:00:00 15.2 13 Este 22 Este 0 -- -- 80
2018-07-21 06:00:00 15.7 12 Este 20 Este 0 -- -- 77
2018-07-21 05:00:00 16 10 Nordeste 15 Nordeste 0 -- -- 76
2018-07-21 04:00:00 16.7 9 Este 15 Este 0 -- -- 71
2018-07-21 03:00:00 17 10 Este 18 Este 0 -- -- 69
2018-07-21 02:00:00 17.8 10 Este 19 Este 0 -- -- 66
2018-07-21 01:00:00 18.5 13 Este 18 Nordeste 0 -- -- 63
2018-07-21 00:00:00 19.4 10 Este 17 Este 0 -- -- 60
2018-07-20 23:00:00 20.8 12 Este 23 Nordeste 0 -- -- 56
2018-07-20 22:00:00 22.5 13 Nordeste 51 Nordeste 0 -- -- 51
2018-07-20 21:00:00 26.5 27 Nordeste 42 Nordeste 0 -- -- 43
2018-07-20 20:00:00 29.1 17 Oeste 38 Oeste 0 -- -- 30
2018-07-20 19:00:00 30.7 25 Oeste 41 Oeste 0 -- -- 29
2018-07-20 18:00:00 31.3 21 Oeste 40 Oeste 0 -- -- 21
2018-07-20 17:00:00 32.6 22 Sudoeste 44 Oeste 0 -- -- 21
2018-07-20 16:00:00 32.2 19 Oeste 35 Oeste 0 -- -- 22
2018-07-20 15:00:00 31.8 13 Oeste 31 Sudoeste 0 -- -- 26
2018-07-20 14:00:00 30.3 14 Oeste 29 Oeste 0 -- -- 29
2018-07-20 13:00:00 29.9 12 Oeste 25 Oeste 0 -- -- 28
2018-07-20 12:00:00 27.9 13 Oeste 23 Oeste 0 -- -- 31
2018-07-20 11:00:00 25.5 3 Sudoeste 9 Noroeste 0 -- -- 33
2018-07-20 10:00:00 22.1 2 Sudoeste 10 Este 0 -- -- 39
2018-07-20 09:00:00 18.5 5 Este 10 Este 0 -- -- 49
2018-07-20 08:00:00 15.3 5 Este 8 Nordeste 0 -- -- 54
2018-07-20 07:00:00 13.3 5 Este 8 Este 0 -- -- 58
2018-07-20 06:00:00 13.1 3 Este 7 Nordeste 0 -- -- 60
2018-07-20 05:00:00 13.9 3 Este 8 Este 0 -- -- 58
2018-07-20 04:00:00 15 3 Este 8 Nordeste 0 -- -- 60
2018-07-20 03:00:00 16.2 3 Este 8 Nordeste 0 -- -- 56
2018-07-20 02:00:00 17.5 5 Nordeste 7 Nordeste 0 -- -- 55
2018-07-20 01:00:00 19.4 5 Nordeste 6 Nordeste 0 -- -- 45
2018-07-20 00:00:00 21 0 Calma 5 Sudoeste 0 -- -- 40